createdAt,value
2017-07-30T00:00:21.777Z,23.20
2017-07-30T00:02:50.175Z,23.10
2017-07-30T00:05:18.683Z,23.10
2017-07-30T00:07:47.104Z,23.10
2017-07-30T00:10:16.147Z,23.10
2017-07-30T00:12:44.425Z,23.00
2017-07-30T00:15:12.831Z,23.10
2017-07-30T00:17:41.156Z,23.10
2017-07-30T00:20:09.387Z,23.10
2017-07-30T00:22:37.688Z,23.10
2017-07-30T00:25:05.932Z,23.10
2017-07-30T00:27:34.185Z,23.10
2017-07-30T00:30:02.602Z,23.10
2017-07-30T00:32:31.852Z,23.10
2017-07-30T00:35:00.111Z,23.10
2017-07-30T00:37:28.542Z,23.10
2017-07-30T00:39:56.967Z,23.00
2017-07-30T00:42:25.227Z,23.00
2017-07-30T00:44:53.514Z,23.00
2017-07-30T00:47:22.225Z,23.00
2017-07-30T00:49:50.465Z,23.00
2017-07-30T00:52:18.716Z,23.00
2017-07-30T00:54:47.816Z,23.00
2017-07-30T00:57:16.872Z,23.00
2017-07-30T00:59:45.177Z,22.90
2017-07-30T01:02:14.208Z,22.90
2017-07-30T01:04:42.458Z,22.90
2017-07-30T01:07:11.583Z,22.90
2017-07-30T01:09:39.833Z,22.90
2017-07-30T01:12:08.237Z,22.90
2017-07-30T01:14:37.336Z,22.90
2017-07-30T01:17:05.629Z,22.80
2017-07-30T01:19:33.866Z,22.80
2017-07-30T01:22:02.153Z,22.80
2017-07-30T01:24:30.392Z,22.80
2017-07-30T01:26:59.524Z,22.80
2017-07-30T01:29:27.952Z,22.70
2017-07-30T01:31:56.184Z,22.70
2017-07-30T01:34:24.490Z,22.70
2017-07-30T01:36:52.886Z,22.70
2017-07-30T01:39:21.176Z,22.70
2017-07-30T01:41:50.185Z,22.60
2017-07-30T01:44:18.457Z,22.60
2017-07-30T01:46:46.740Z,22.50
2017-07-30T01:49:15.036Z,22.50
2017-07-30T01:51:43.413Z,22.50
2017-07-30T01:54:11.892Z,22.50
2017-07-30T01:56:40.131Z,22.50
2017-07-30T01:59:09.212Z,22.40
2017-07-30T02:01:38.273Z,22.30
2017-07-30T02:04:06.647Z,22.30
2017-07-30T02:06:34.888Z,22.30
2017-07-30T02:09:03.138Z,22.30
2017-07-30T02:11:31.417Z,22.20
2017-07-30T02:14:00.498Z,22.20
2017-07-30T02:16:28.876Z,22.20
2017-07-30T02:18:57.157Z,22.20
2017-07-30T02:21:25.437Z,22.10
2017-07-30T02:23:54.514Z,22.00
2017-07-30T02:26:22.843Z,22.00
2017-07-30T02:28:51.240Z,22.00
2017-07-30T02:31:19.555Z,22.00
2017-07-30T02:33:47.909Z,22.00
2017-07-30T02:36:16.201Z,21.90
2017-07-30T02:38:44.435Z,21.90
2017-07-30T02:41:12.838Z,21.90
2017-07-30T02:43:41.318Z,21.90
2017-07-30T02:46:09.627Z,21.90
2017-07-30T02:48:38.077Z,21.90
2017-07-30T02:51:06.336Z,21.80
2017-07-30T02:53:34.605Z,21.80
2017-07-30T02:56:02.979Z,21.90
2017-07-30T02:58:31.326Z,21.80
2017-07-30T03:01:00.446Z,21.80
2017-07-30T03:03:28.811Z,21.80
2017-07-30T03:05:57.078Z,21.90
2017-07-30T03:08:25.484Z,21.90
2017-07-30T03:10:53.781Z,21.90
2017-07-30T03:13:22.038Z,21.90
2017-07-30T03:15:50.320Z,21.90
2017-07-30T03:18:18.589Z,21.80
2017-07-30T03:20:46.982Z,21.90
2017-07-30T03:23:15.291Z,21.80
2017-07-30T03:25:44.362Z,21.80
2017-07-30T03:28:12.600Z,21.80
2017-07-30T03:30:40.949Z,21.70
2017-07-30T03:33:09.342Z,21.70
2017-07-30T03:35:37.679Z,21.70
2017-07-30T03:38:05.921Z,21.60
2017-07-30T03:40:34.166Z,21.50
2017-07-30T03:43:02.664Z,21.40
2017-07-30T03:45:30.926Z,21.40
2017-07-30T03:47:59.240Z,21.50
2017-07-30T03:50:27.503Z,21.50
2017-07-30T03:52:55.830Z,21.40
2017-07-30T03:55:24.069Z,21.40
2017-07-30T03:57:52.325Z,21.40
2017-07-30T04:00:20.903Z,21.40
2017-07-30T04:02:49.163Z,21.40
2017-07-30T04:05:17.480Z,21.30
2017-07-30T04:07:45.895Z,21.30
2017-07-30T04:10:14.975Z,21.20
2017-07-30T04:12:43.307Z,21.20
2017-07-30T04:15:12.637Z,21.10
2017-07-30T04:17:40.934Z,21.10
2017-07-30T04:20:09.260Z,21.00
2017-07-30T04:22:37.681Z,21.00
2017-07-30T04:25:05.921Z,21.00
2017-07-30T04:27:34.217Z,21.00
2017-07-30T04:30:03.489Z,21.00
2017-07-30T04:32:31.869Z,20.90
2017-07-30T04:35:00.237Z,20.90
2017-07-30T04:37:28.651Z,21.00
2017-07-30T04:39:57.004Z,21.00
2017-07-30T04:42:25.763Z,21.00
2017-07-30T04:44:54.755Z,21.20
2017-07-30T04:47:23.131Z,21.20
2017-07-30T04:49:51.397Z,21.30
2017-07-30T04:52:20.467Z,21.30
2017-07-30T04:54:48.778Z,21.30
2017-07-30T04:57:17.148Z,21.40
2017-07-30T04:59:45.556Z,21.50
2017-07-30T05:02:13.801Z,21.60
2017-07-30T05:04:43.133Z,21.90
2017-07-30T05:07:11.406Z,21.90
2017-07-30T05:09:39.706Z,22.10
2017-07-30T05:12:07.957Z,22.30
2017-07-30T05:14:36.224Z,22.40
2017-07-30T05:17:04.624Z,22.50
2017-07-30T05:19:32.878Z,22.70
2017-07-30T05:22:01.151Z,22.90
2017-07-30T05:24:29.587Z,23.00
2017-07-30T05:26:57.857Z,23.20
2017-07-30T05:29:26.206Z,23.40
2017-07-30T05:31:54.830Z,23.50
2017-07-30T05:34:23.909Z,23.80
2017-07-30T05:36:52.407Z,23.80
2017-07-30T05:39:20.721Z,23.90
2017-07-30T05:41:49.358Z,23.90
2017-07-30T05:44:17.879Z,24.00
2017-07-30T05:46:47.057Z,24.30
2017-07-30T05:49:15.458Z,24.20
2017-07-30T05:51:43.808Z,24.40
2017-07-30T05:54:12.869Z,24.70
2017-07-30T05:56:41.608Z,24.70
2017-07-30T05:59:10.069Z,24.90
2017-07-30T06:01:39.138Z,25.20
2017-07-30T06:04:07.378Z,25.20
2017-07-30T06:06:35.888Z,25.30
2017-07-30T06:09:04.126Z,25.20
2017-07-30T06:11:32.562Z,25.20
2017-07-30T06:14:00.910Z,25.30
2017-07-30T06:16:29.302Z,25.20
2017-07-30T06:18:57.935Z,25.20
2017-07-30T06:21:26.315Z,25.00
2017-07-30T06:23:54.788Z,25.00
2017-07-30T06:26:23.038Z,24.80
2017-07-30T06:28:51.370Z,24.70
2017-07-30T06:31:19.616Z,24.70
2017-07-30T06:33:47.952Z,24.50
2017-07-30T06:36:16.286Z,24.40
2017-07-30T06:38:45.337Z,24.30
2017-07-30T06:41:13.652Z,24.30
2017-07-30T06:43:42.051Z,24.30
2017-07-30T06:46:10.421Z,24.30
2017-07-30T06:48:38.792Z,24.40
2017-07-30T06:51:07.901Z,24.50
2017-07-30T06:53:36.154Z,24.50
2017-07-30T06:56:04.532Z,24.60
2017-07-30T06:58:33.554Z,24.80
2017-07-30T07:01:01.851Z,24.70
2017-07-30T07:03:30.274Z,24.80
2017-07-30T07:05:59.400Z,25.20
2017-07-30T07:08:27.779Z,25.10
2017-07-30T07:10:56.193Z,25.30
2017-07-30T07:13:25.038Z,25.50
2017-07-30T07:15:54.513Z,25.70
2017-07-30T07:18:23.027Z,25.70
2017-07-30T07:20:51.466Z,25.90
2017-07-30T07:23:20.646Z,26.30
2017-07-30T07:25:48.974Z,26.30
2017-07-30T07:28:17.522Z,26.50
2017-07-30T07:30:45.753Z,26.80
2017-07-30T07:33:14.277Z,27.10
2017-07-30T07:35:43.277Z,27.60
2017-07-30T07:38:11.552Z,27.50
2017-07-30T07:40:39.804Z,27.70
2017-07-30T07:43:08.075Z,27.70
2017-07-30T07:45:36.430Z,27.90
2017-07-30T07:48:04.716Z,28.00
2017-07-30T07:50:32.980Z,28.30
2017-07-30T07:53:01.307Z,28.70
2017-07-30T07:55:30.384Z,29.70
2017-07-30T07:57:59.416Z,30.00
2017-07-30T08:00:27.647Z,30.00
2017-07-30T08:02:55.956Z,30.10
2017-07-30T08:05:24.296Z,30.00
2017-07-30T08:07:52.562Z,29.80
2017-07-30T08:10:20.784Z,29.50
2017-07-30T08:12:49.060Z,29.10
2017-07-30T08:15:20.613Z,28.60
2017-07-30T08:17:50.284Z,28.40
2017-07-30T08:20:18.663Z,28.40
2017-07-30T08:22:47.146Z,28.30
2017-07-30T08:25:15.385Z,28.30
2017-07-30T08:27:44.236Z,28.50
2017-07-30T08:30:12.672Z,28.90
2017-07-30T08:32:41.013Z,29.30
2017-07-30T08:35:09.314Z,29.60
2017-07-30T08:37:37.594Z,29.70
2017-07-30T08:40:06.215Z,29.80
2017-07-30T08:42:35.585Z,29.80
2017-07-30T08:45:04.631Z,29.90
2017-07-30T08:47:34.750Z,30.00
2017-07-30T08:50:07.080Z,30.30
2017-07-30T08:52:36.983Z,30.30
2017-07-30T08:55:06.568Z,30.60
2017-07-30T08:57:36.165Z,31.10
2017-07-30T09:00:05.585Z,31.40
2017-07-30T09:02:33.889Z,31.40
2017-07-30T09:05:03.752Z,31.20
2017-07-30T09:07:32.257Z,31.10
2017-07-30T09:10:00.920Z,30.80
2017-07-30T09:12:29.352Z,30.90
2017-07-30T09:14:57.790Z,30.40
2017-07-30T09:17:26.349Z,29.90
2017-07-30T09:19:54.819Z,29.80
2017-07-30T09:22:23.136Z,30.00
2017-07-30T09:24:51.625Z,29.80
2017-07-30T09:27:19.897Z,29.60
2017-07-30T09:29:48.270Z,29.40
2017-07-30T09:32:16.527Z,29.40
2017-07-30T09:34:44.784Z,29.70
2017-07-30T09:37:13.243Z,29.90
2017-07-30T09:39:42.300Z,29.80
2017-07-30T09:42:10.556Z,29.80
2017-07-30T09:44:39.013Z,29.60
2017-07-30T09:47:07.520Z,29.50
2017-07-30T09:49:36.001Z,29.50
2017-07-30T09:52:04.593Z,29.70
2017-07-30T09:54:32.879Z,29.60
2017-07-30T09:57:01.343Z,29.50
2017-07-30T09:59:29.664Z,29.30
2017-07-30T10:01:57.943Z,29.40
2017-07-30T10:04:27.092Z,29.70
2017-07-30T10:06:55.415Z,29.70
2017-07-30T10:09:23.887Z,29.90
2017-07-30T10:11:52.276Z,30.20
2017-07-30T10:14:21.454Z,31.00
2017-07-30T10:16:49.758Z,31.00
2017-07-30T10:19:18.912Z,30.90
2017-07-30T10:21:47.494Z,30.80
2017-07-30T10:24:15.887Z,30.70
2017-07-30T10:26:44.162Z,30.50
2017-07-30T10:29:12.441Z,30.40
2017-07-30T10:31:40.840Z,30.30
2017-07-30T10:34:10.332Z,29.60
2017-07-30T10:36:38.707Z,29.50
2017-07-30T10:39:07.217Z,29.30
2017-07-30T10:41:36.422Z,29.20
2017-07-30T10:44:05.926Z,29.00
2017-07-30T10:46:35.405Z,28.90
2017-07-30T10:49:04.586Z,28.90
2017-07-30T10:51:32.937Z,28.90
2017-07-30T10:54:01.311Z,28.70
2017-07-30T10:56:30.148Z,28.90
2017-07-30T10:58:59.410Z,29.80
2017-07-30T11:01:28.016Z,29.80
2017-07-30T11:03:56.436Z,30.30
2017-07-30T11:06:24.653Z,30.80
2017-07-30T11:08:53.112Z,31.20
2017-07-30T11:11:21.607Z,31.40
2017-07-30T11:13:49.966Z,31.80
2017-07-30T11:16:18.296Z,31.60
2017-07-30T11:18:47.401Z,32.00
2017-07-30T11:21:16.429Z,32.60
2017-07-30T11:23:44.707Z,32.60
2017-07-30T11:26:12.942Z,33.10
2017-07-30T11:28:41.985Z,33.60
2017-07-30T11:31:10.433Z,33.60
2017-07-30T11:33:38.868Z,33.10
2017-07-30T11:36:07.084Z,32.60
2017-07-30T11:38:36.810Z,32.00
2017-07-30T11:41:05.218Z,31.60
2017-07-30T11:43:33.494Z,31.30
2017-07-30T11:46:01.769Z,30.90
2017-07-30T11:48:30.177Z,30.50
2017-07-30T11:50:58.556Z,29.80
2017-07-30T11:53:26.780Z,29.40
2017-07-30T11:55:55.016Z,28.80
2017-07-30T11:58:24.549Z,28.40
2017-07-30T12:00:52.852Z,28.30
2017-07-30T12:03:21.118Z,28.20
2017-07-30T12:05:49.411Z,28.00
2017-07-30T12:08:17.661Z,27.90
2017-07-30T12:10:45.992Z,27.80
2017-07-30T12:13:14.232Z,27.60
2017-07-30T12:15:43.678Z,27.30
2017-07-30T12:18:12.077Z,27.20
2017-07-30T12:20:41.085Z,26.80
2017-07-30T12:23:09.407Z,26.80
2017-07-30T12:25:37.687Z,26.70
2017-07-30T12:28:05.985Z,26.60
2017-07-30T12:30:34.430Z,26.90
2017-07-30T12:33:02.710Z,27.20
2017-07-30T12:35:31.058Z,27.90
2017-07-30T12:37:59.333Z,28.40
2017-07-30T12:40:27.751Z,28.60
2017-07-30T12:42:56.565Z,28.80
2017-07-30T12:45:25.786Z,29.20
2017-07-30T12:47:54.168Z,29.10
2017-07-30T12:50:22.826Z,29.50
2017-07-30T12:52:51.264Z,29.40
2017-07-30T12:55:19.669Z,29.10
2017-07-30T12:57:48.084Z,28.70
2017-07-30T13:00:16.498Z,28.30
2017-07-30T13:02:45.734Z,27.90
2017-07-30T13:05:14.761Z,27.90
2017-07-30T13:07:43.258Z,27.80
2017-07-30T13:10:11.590Z,27.80
2017-07-30T13:12:40.731Z,27.80
2017-07-30T13:15:09.060Z,27.70
2017-07-30T13:17:37.391Z,27.60
2017-07-30T13:20:05.850Z,27.60
2017-07-30T13:22:34.317Z,27.60
2017-07-30T13:25:04.329Z,27.50
2017-07-30T13:27:32.592Z,27.60
2017-07-30T13:30:00.971Z,27.80
2017-07-30T13:32:30.149Z,27.80
2017-07-30T13:34:58.806Z,27.80
2017-07-30T13:37:27.422Z,27.90
2017-07-30T13:39:55.916Z,27.80
2017-07-30T13:42:24.175Z,27.70
2017-07-30T13:44:53.295Z,27.60
2017-07-30T13:47:21.840Z,27.50
2017-07-30T13:49:50.351Z,27.50
2017-07-30T13:52:19.406Z,27.10
2017-07-30T13:54:47.798Z,27.10
2017-07-30T13:57:16.173Z,27.20
2017-07-30T13:59:45.311Z,27.30
2017-07-30T14:02:13.572Z,27.20
2017-07-30T14:04:42.058Z,27.20
2017-07-30T14:07:10.364Z,27.20
2017-07-30T14:09:38.725Z,27.10
2017-07-30T14:12:06.996Z,27.20
2017-07-30T14:14:35.462Z,27.10
2017-07-30T14:17:03.835Z,27.00
2017-07-30T14:19:32.081Z,27.00
2017-07-30T14:22:01.407Z,27.10
2017-07-30T14:24:29.831Z,27.10
2017-07-30T14:26:58.099Z,27.00
2017-07-30T14:29:26.481Z,26.90
2017-07-30T14:31:54.770Z,26.90
2017-07-30T14:34:23.045Z,26.90
2017-07-30T14:36:51.405Z,26.80
2017-07-30T14:39:20.544Z,26.70
2017-07-30T14:41:50.896Z,26.70
2017-07-30T14:44:19.196Z,26.70
2017-07-30T14:46:47.511Z,26.60
2017-07-30T14:49:15.899Z,26.60
2017-07-30T14:51:45.094Z,26.60
2017-07-30T14:54:14.344Z,26.60
2017-07-30T14:56:42.616Z,26.60
2017-07-30T14:59:12.372Z,26.50
2017-07-30T15:01:41.409Z,26.60
2017-07-30T15:04:10.654Z,26.60
2017-07-30T15:06:38.938Z,26.60
2017-07-30T15:09:07.407Z,26.50
2017-07-30T15:11:35.800Z,26.70
2017-07-30T15:14:04.411Z,26.70
2017-07-30T15:16:32.989Z,26.80
2017-07-30T15:19:02.033Z,26.80
2017-07-30T15:21:30.342Z,26.80
2017-07-30T15:23:59.560Z,26.90
2017-07-30T15:26:27.814Z,26.90
2017-07-30T15:28:56.843Z,27.10
2017-07-30T15:31:27.090Z,27.10
2017-07-30T15:33:55.594Z,27.10
2017-07-30T15:36:25.969Z,27.10
2017-07-30T15:38:54.214Z,27.00
2017-07-30T15:41:22.888Z,27.00
2017-07-30T15:43:51.294Z,27.10
2017-07-30T15:46:20.576Z,27.00
2017-07-30T15:48:49.743Z,27.00
2017-07-30T15:51:19.460Z,27.00
2017-07-30T15:53:47.775Z,27.00
2017-07-30T15:56:17.038Z,26.90
2017-07-30T15:58:45.650Z,26.90
2017-07-30T16:01:14.869Z,26.90
2017-07-30T16:03:44.021Z,26.90
2017-07-30T16:06:12.498Z,26.90
2017-07-30T16:08:40.902Z,26.90
2017-07-30T16:11:10.272Z,26.80
2017-07-30T16:13:38.677Z,26.80
2017-07-30T16:16:07.047Z,26.80
2017-07-30T16:18:35.364Z,26.80
2017-07-30T16:21:03.912Z,26.70
2017-07-30T16:23:32.670Z,26.70
2017-07-30T16:26:02.094Z,26.60
2017-07-30T16:28:30.393Z,26.60
2017-07-30T16:30:58.879Z,26.60
2017-07-30T16:33:28.209Z,26.60
2017-07-30T16:35:56.548Z,26.60
2017-07-30T16:38:26.352Z,26.60
2017-07-30T16:40:54.863Z,26.70
2017-07-30T16:43:23.296Z,26.70
2017-07-30T16:45:51.599Z,26.70
2017-07-30T16:48:21.272Z,26.80
2017-07-30T16:50:50.373Z,26.80
2017-07-30T16:53:19.690Z,26.70
2017-07-30T16:55:48.988Z,26.70
2017-07-30T16:58:18.056Z,26.60
2017-07-30T17:00:46.524Z,26.60
2017-07-30T17:03:15.852Z,26.60
2017-07-30T17:05:44.959Z,26.60
2017-07-30T17:08:14.057Z,26.60
2017-07-30T17:10:43.155Z,26.60
2017-07-30T17:13:12.237Z,26.60
2017-07-30T17:15:40.750Z,26.60
2017-07-30T17:18:09.153Z,26.70
2017-07-30T17:20:38.579Z,26.70
2017-07-30T17:23:06.980Z,26.70
2017-07-30T17:25:35.450Z,26.70
2017-07-30T17:28:03.841Z,26.70
2017-07-30T17:30:32.982Z,26.70
2017-07-30T17:33:01.657Z,26.70
2017-07-30T17:35:30.119Z,26.70
2017-07-30T17:37:59.458Z,26.70
2017-07-30T17:40:28.190Z,26.70
2017-07-30T17:42:57.471Z,26.70
2017-07-30T17:45:26.665Z,26.70
2017-07-30T17:47:54.930Z,26.70
2017-07-30T17:50:23.419Z,26.60
2017-07-30T17:52:51.721Z,26.60
2017-07-30T17:55:20.294Z,26.50
2017-07-30T17:57:48.603Z,26.50
2017-07-30T18:00:16.996Z,26.50
2017-07-30T18:02:46.086Z,26.50
2017-07-30T18:05:14.479Z,26.40
2017-07-30T18:07:42.837Z,26.50
2017-07-30T18:10:11.138Z,26.40
2017-07-30T18:12:39.573Z,26.40
2017-07-30T18:15:08.032Z,26.40
2017-07-30T18:17:36.739Z,26.40
2017-07-30T18:20:05.749Z,26.40
2017-07-30T18:22:34.137Z,26.30
2017-07-30T18:25:02.529Z,26.40
2017-07-30T18:27:31.014Z,26.30
2017-07-30T18:30:00.627Z,26.20
2017-07-30T18:32:29.844Z,26.20
2017-07-30T18:34:58.492Z,26.20
2017-07-30T18:37:28.043Z,26.10
2017-07-30T18:39:57.101Z,26.00
2017-07-30T18:42:26.408Z,26.00
2017-07-30T18:44:54.948Z,26.00
2017-07-30T18:47:24.033Z,25.90
2017-07-30T18:49:52.987Z,25.90
2017-07-30T18:52:21.492Z,25.90
2017-07-30T18:54:49.846Z,25.80
2017-07-30T18:57:18.351Z,25.80
2017-07-30T18:59:47.459Z,25.70
2017-07-30T19:02:15.748Z,25.70
2017-07-30T19:04:44.331Z,25.70
2017-07-30T19:07:12.958Z,25.70
2017-07-30T19:09:41.552Z,25.70
2017-07-30T19:12:09.900Z,25.50
2017-07-30T19:14:39.229Z,25.40
2017-07-30T19:17:07.669Z,25.40
2017-07-30T19:19:36.315Z,25.30
2017-07-30T19:22:06.098Z,25.30
2017-07-30T19:24:37.049Z,25.20
2017-07-30T19:27:11.110Z,25.20
2017-07-30T19:29:39.907Z,25.20
2017-07-30T19:32:08.432Z,25.10
2017-07-30T19:34:39.360Z,25.10
2017-07-30T19:37:07.806Z,25.10
2017-07-30T19:39:36.181Z,25.10
2017-07-30T19:42:04.603Z,25.00
2017-07-30T19:44:33.665Z,25.00
2017-07-30T19:47:02.012Z,25.00
2017-07-30T19:49:30.337Z,25.00
2017-07-30T19:51:58.806Z,25.00
2017-07-30T19:54:27.089Z,25.00
2017-07-30T19:56:55.527Z,24.90
2017-07-30T19:59:24.076Z,24.90
2017-07-30T20:01:52.867Z,24.80
2017-07-30T20:04:22.001Z,24.70
2017-07-30T20:06:50.834Z,24.70
2017-07-30T20:09:20.129Z,24.70
2017-07-30T20:11:48.590Z,24.60
2017-07-30T20:14:16.960Z,24.50
2017-07-30T20:16:45.365Z,24.60
2017-07-30T20:19:13.823Z,24.60
2017-07-30T20:21:43.234Z,24.50
2017-07-30T20:24:11.945Z,24.50
2017-07-30T20:26:41.157Z,24.50
2017-07-30T20:29:09.985Z,24.50
2017-07-30T20:31:51.326Z,24.50
2017-07-30T20:34:21.981Z,24.40
2017-07-30T20:36:50.324Z,24.40
2017-07-30T20:39:18.780Z,24.40
2017-07-30T20:41:47.613Z,24.30
2017-07-30T20:44:15.892Z,24.30
2017-07-30T20:46:44.326Z,24.20
2017-07-30T20:49:12.777Z,24.20
2017-07-30T20:51:45.393Z,24.20
2017-07-30T20:54:14.725Z,24.20
2017-07-30T20:56:43.144Z,24.20
2017-07-30T20:59:11.538Z,24.20
2017-07-30T21:01:40.097Z,24.20
2017-07-30T21:04:09.596Z,24.10
2017-07-30T21:06:38.181Z,24.10
2017-07-30T21:09:06.682Z,24.10
2017-07-30T21:11:35.591Z,24.10
2017-07-30T21:14:06.692Z,24.10
2017-07-30T21:16:35.137Z,24.10
2017-07-30T21:19:03.534Z,24.10
2017-07-30T21:21:32.096Z,24.10
2017-07-30T21:24:00.564Z,24.10
2017-07-30T21:26:29.857Z,24.10
2017-07-30T21:28:59.149Z,24.00
2017-07-30T21:31:27.532Z,24.00
2017-07-30T21:33:56.088Z,24.10
2017-07-30T21:36:24.951Z,24.00
2017-07-30T21:38:53.423Z,24.00
2017-07-30T21:41:21.706Z,24.00
2017-07-30T21:43:50.600Z,24.00
2017-07-30T21:46:19.095Z,24.00
2017-07-30T21:48:47.412Z,24.00
2017-07-30T21:51:16.674Z,24.00
2017-07-30T21:53:45.207Z,23.90
2017-07-30T21:56:14.335Z,23.90
2017-07-30T21:58:42.853Z,23.80
2017-07-30T22:01:11.439Z,23.80
2017-07-30T22:03:39.790Z,23.80
2017-07-30T22:06:08.657Z,23.80
2017-07-30T22:08:37.272Z,23.70
2017-07-30T22:11:08.462Z,23.60
2017-07-30T22:13:37.939Z,23.60
2017-07-30T22:16:06.692Z,23.60
2017-07-30T22:18:35.306Z,23.60
2017-07-30T22:21:03.857Z,23.60
2017-07-30T22:23:32.422Z,23.60
2017-07-30T22:26:02.104Z,23.60
2017-07-30T22:28:31.346Z,23.50
2017-07-30T22:30:59.844Z,23.50
2017-07-30T22:33:28.250Z,23.50
2017-07-30T22:35:57.706Z,23.50
2017-07-30T22:38:26.373Z,23.50
2017-07-30T22:40:55.215Z,23.50
2017-07-30T22:43:23.756Z,23.50
2017-07-30T22:45:52.108Z,23.50
2017-07-30T22:48:22.432Z,23.50
2017-07-30T22:50:52.187Z,23.50
2017-07-30T22:53:21.049Z,23.50
2017-07-30T22:55:51.092Z,23.50
2017-07-30T22:58:21.173Z,23.40
2017-07-30T23:00:49.770Z,23.40
2017-07-30T23:03:18.674Z,23.40
2017-07-30T23:05:47.391Z,23.30
2017-07-30T23:08:16.241Z,23.20
2017-07-30T23:10:45.584Z,23.20
2017-07-30T23:13:16.227Z,23.10
2017-07-30T23:15:45.376Z,23.10
2017-07-30T23:18:13.865Z,23.10
2017-07-30T23:20:42.289Z,23.10
2017-07-30T23:23:11.176Z,23.00
2017-07-30T23:25:41.128Z,23.20
2017-07-30T23:28:09.619Z,23.20
2017-07-30T23:30:38.309Z,23.20
2017-07-30T23:33:06.745Z,23.20
2017-07-30T23:35:35.414Z,23.20
2017-07-30T23:38:03.882Z,23.20
2017-07-30T23:40:33.392Z,23.10
2017-07-30T23:43:02.679Z,23.20
2017-07-30T23:45:31.345Z,23.20
2017-07-30T23:48:01.219Z,23.20
2017-07-30T23:50:29.656Z,23.20
2017-07-30T23:52:58.249Z,23.20
2017-07-30T23:55:27.573Z,23.20
2017-07-30T23:57:56.110Z,23.20
